createdAt,value
2019-03-05T00:01:13.289Z,6.09
2019-03-05T00:03:48.887Z,6.15
2019-03-05T00:06:21.854Z,6.12
2019-03-05T00:08:57.114Z,6.11
2019-03-05T00:11:31.702Z,6.07
2019-03-05T00:14:06.115Z,6.07
2019-03-05T00:16:40.769Z,5.95
2019-03-05T00:19:13.804Z,5.98
2019-03-05T00:21:48.141Z,5.98
2019-03-05T00:25:16.290Z,5.99
2019-03-05T00:28:20.284Z,5.99
2019-03-05T00:31:31.631Z,5.96
2019-03-05T00:34:58.730Z,6.02
2019-03-05T00:38:16.760Z,5.95
2019-03-05T00:41:20.727Z,5.98
2019-03-05T00:44:41.798Z,5.92
2019-03-05T00:47:41.694Z,5.94
2019-03-05T00:51:25.260Z,5.94
2019-03-05T00:54:33.720Z,5.92
2019-03-05T00:57:19.280Z,6.01
2019-03-05T01:00:40.954Z,6.03
2019-03-05T01:03:40.070Z,6.00
2019-03-05T01:06:27.729Z,6.02
2019-03-05T01:09:02.281Z,5.90
2019-03-05T01:11:38.672Z,5.89
2019-03-05T01:14:13.791Z,5.89
2019-03-05T01:16:48.319Z,5.91
2019-03-05T01:19:22.873Z,5.91
2019-03-05T01:21:55.872Z,5.99
2019-03-05T01:24:30.255Z,6.00
2019-03-05T01:27:05.719Z,5.96
2019-03-05T01:29:40.955Z,5.96
2019-03-05T01:32:48.140Z,5.95
2019-03-05T01:35:38.769Z,5.97
2019-03-05T01:38:11.696Z,5.97
2019-03-05T01:40:49.632Z,5.98
2019-03-05T01:43:23.953Z,6.00
2019-03-05T01:45:58.387Z,5.98
2019-03-05T01:48:32.929Z,6.15
2019-03-05T01:51:09.031Z,6.15
2019-03-05T01:53:43.365Z,6.35
2019-03-05T01:56:18.889Z,6.35
2019-03-05T01:58:51.879Z,6.45
2019-03-05T02:01:27.299Z,6.46
2019-03-05T02:04:01.829Z,6.42
2019-03-05T02:06:35.083Z,6.41
2019-03-05T02:09:09.288Z,6.47
2019-03-05T02:11:43.959Z,6.52
2019-03-05T02:14:16.873Z,6.55
2019-03-05T02:16:51.257Z,6.57
2019-03-05T02:19:43.932Z,6.65
2019-03-05T02:22:26.871Z,6.63
2019-03-05T02:25:22.751Z,6.60
2019-03-05T02:28:59.953Z,6.55
2019-03-05T02:32:17.889Z,6.55
2019-03-05T02:35:41.125Z,6.50
2019-03-05T02:39:22.609Z,6.56
2019-03-05T02:46:27.289Z,6.49
2019-03-05T02:49:47.756Z,6.46
2019-03-05T02:53:00.154Z,6.45
2019-03-05T02:56:40.800Z,6.43
2019-03-05T02:59:12.296Z,6.42
2019-03-05T03:02:00.604Z,6.53
2019-03-05T03:04:38.517Z,6.54
2019-03-05T03:07:12.964Z,6.43
2019-03-05T03:10:14.410Z,6.31
2019-03-05T03:12:49.335Z,6.31
2019-03-05T03:15:23.773Z,6.23
2019-03-05T03:17:56.869Z,6.24
2019-03-05T03:20:31.285Z,6.24
2019-03-05T03:23:05.770Z,6.35
2019-03-05T03:25:40.129Z,6.31
2019-03-05T03:28:14.759Z,6.18
2019-03-05T03:30:49.112Z,6.18
2019-03-05T03:33:23.892Z,6.12
2019-03-05T03:35:58.678Z,6.18
2019-03-05T03:38:32.945Z,6.18
2019-03-05T03:41:06.961Z,6.16
2019-03-05T03:43:41.124Z,6.18
2019-03-05T03:46:15.627Z,6.11
2019-03-05T03:48:49.953Z,6.11
2019-03-05T03:51:24.325Z,6.17
2019-03-05T03:53:58.704Z,6.20
2019-03-05T03:56:33.293Z,6.10
2019-03-05T03:59:07.888Z,6.06
2019-03-05T04:01:41.065Z,6.13
2019-03-05T04:04:15.288Z,6.10
2019-03-05T04:06:49.943Z,6.08
2019-03-05T04:09:22.873Z,6.18
2019-03-05T04:11:57.108Z,6.18
2019-03-05T04:14:31.332Z,6.21
2019-03-05T04:17:05.787Z,6.21
2019-03-05T04:19:40.130Z,6.10
2019-03-05T04:22:14.686Z,6.24
2019-03-05T04:24:49.114Z,6.24
2019-03-05T04:27:23.694Z,6.19
2019-03-05T04:30:52.304Z,6.25
2019-03-05T04:33:27.302Z,6.18
2019-03-05T04:38:23.672Z,6.19
2019-03-05T04:40:58.286Z,6.19
2019-03-05T04:43:32.781Z,6.20
2019-03-05T04:46:30.417Z,6.13
2019-03-05T04:49:15.653Z,6.21
2019-03-05T04:51:53.622Z,6.12
2019-03-05T04:54:27.953Z,6.11
2019-03-05T04:57:02.877Z,5.98
2019-03-05T04:59:37.285Z,5.95
2019-03-05T05:02:11.894Z,6.06
2019-03-05T05:04:44.858Z,6.02
2019-03-05T05:07:19.290Z,5.98
2019-03-05T05:09:53.890Z,6.00
2019-03-05T05:12:28.282Z,5.90
2019-03-05T05:15:02.785Z,5.94
2019-03-05T05:17:35.860Z,6.02
2019-03-05T05:20:10.267Z,6.14
2019-03-05T05:22:44.860Z,6.11
2019-03-05T05:25:18.940Z,6.07
2019-03-05T05:27:51.863Z,6.07
2019-03-05T05:30:40.569Z,6.06
2019-03-05T05:33:15.516Z,6.06
2019-03-05T05:35:49.953Z,6.07
2019-03-05T05:38:23.064Z,6.12
2019-03-05T05:40:55.919Z,6.08
2019-03-05T05:43:30.878Z,6.03
2019-03-05T05:46:05.256Z,6.09
2019-03-05T05:48:39.915Z,6.10
2019-03-05T05:51:13.058Z,6.20
2019-03-05T05:53:47.387Z,6.21
2019-03-05T05:56:22.122Z,6.23
2019-03-05T05:58:56.738Z,6.21
2019-03-05T06:01:31.310Z,6.14
2019-03-05T06:04:05.956Z,6.17
2019-03-05T06:06:40.386Z,6.22
2019-03-05T06:09:15.286Z,6.24
2019-03-05T06:11:50.283Z,6.29
2019-03-05T06:14:25.323Z,6.42
2019-03-05T06:16:59.797Z,6.51
2019-03-05T06:19:33.290Z,6.49
2019-03-05T06:22:07.646Z,6.41
2019-03-05T06:24:42.280Z,6.33
2019-03-05T06:27:17.106Z,6.33
2019-03-05T06:29:51.745Z,6.48
2019-03-05T06:32:26.290Z,6.43
2019-03-05T06:35:00.902Z,6.45
2019-03-05T06:37:35.871Z,6.45
2019-03-05T06:40:11.998Z,6.39
2019-03-05T06:42:45.272Z,6.50
2019-03-05T06:45:20.254Z,6.50
2019-03-05T06:47:55.006Z,6.48
2019-03-05T06:50:29.648Z,6.43
2019-03-05T06:53:04.127Z,6.43
2019-03-05T06:55:38.696Z,6.51
2019-03-05T06:58:13.337Z,6.33
2019-03-05T07:00:48.148Z,6.18
2019-03-05T07:03:22.785Z,6.02
2019-03-05T07:06:32.282Z,6.06
2019-03-05T07:09:21.343Z,5.92
2019-03-05T07:13:09.385Z,5.92
2019-03-05T07:17:00.763Z,5.97
2019-03-05T07:19:58.296Z,5.93
2019-03-05T07:22:50.320Z,6.03
2019-03-05T07:25:24.936Z,6.17
2019-03-05T07:27:59.599Z,6.17
2019-03-05T07:30:34.243Z,6.25
2019-03-05T07:33:08.703Z,6.28
2019-03-05T07:35:43.730Z,6.44
2019-03-05T07:38:18.255Z,6.48
2019-03-05T07:40:52.762Z,6.48
2019-03-05T07:46:12.683Z,6.70
2019-03-05T07:48:46.943Z,6.77
2019-03-05T07:51:19.872Z,6.81
2019-03-05T07:53:55.288Z,6.80
2019-03-05T07:56:29.835Z,6.77
2019-03-05T07:59:03.274Z,6.72
2019-03-05T08:01:37.702Z,6.95
2019-03-05T08:04:12.116Z,6.95
2019-03-05T08:06:46.711Z,7.10
2019-03-05T08:09:52.277Z,7.24
2019-03-05T08:13:06.736Z,7.49
2019-03-05T08:16:26.997Z,7.32
2019-03-05T08:19:01.329Z,7.32
2019-03-05T08:21:36.757Z,7.14
2019-03-05T08:24:11.271Z,7.04
2019-03-05T08:26:45.686Z,7.02
2019-03-05T08:29:20.333Z,7.06
2019-03-05T08:31:54.949Z,6.96
2019-03-05T08:34:29.261Z,7.12
2019-03-05T08:37:03.774Z,7.24
2019-03-05T08:39:38.278Z,7.75
2019-03-05T08:42:12.705Z,7.75
2019-03-05T08:44:50.735Z,7.92
2019-03-05T08:47:23.137Z,7.95
2019-03-05T08:49:57.663Z,7.74
2019-03-05T08:52:32.256Z,7.74
2019-03-05T08:55:06.939Z,7.62
2019-03-05T08:57:41.324Z,7.81
2019-03-05T09:00:17.764Z,7.94
2019-03-05T09:02:52.252Z,7.99
2019-03-05T09:05:27.731Z,7.99
2019-03-05T09:08:03.559Z,8.06
2019-03-05T09:10:38.038Z,8.08
2019-03-05T09:13:12.780Z,8.04
2019-03-05T09:15:47.330Z,8.05
2019-03-05T09:18:23.519Z,8.12
2019-03-05T09:20:58.298Z,8.21
2019-03-05T09:23:32.889Z,8.20
2019-03-05T09:26:05.854Z,8.02
2019-03-05T09:28:40.114Z,7.94
2019-03-05T09:31:14.652Z,7.89
2019-03-05T09:33:49.133Z,7.85
2019-03-05T09:36:23.714Z,8.00
2019-03-05T09:38:58.111Z,8.00
2019-03-05T09:41:32.699Z,8.17
2019-03-05T09:44:07.116Z,8.15
2019-03-05T09:46:41.726Z,8.17
2019-03-05T09:49:16.119Z,8.18
2019-03-05T09:51:50.665Z,8.38
2019-03-05T09:54:25.246Z,8.38
2019-03-05T09:56:59.731Z,8.69
2019-03-05T09:59:32.844Z,8.93
2019-03-05T10:02:07.101Z,9.26
2019-03-05T10:04:42.256Z,9.45
2019-03-05T10:07:19.255Z,9.82
2019-03-05T10:09:52.946Z,9.79
2019-03-05T10:12:27.135Z,9.87
2019-03-05T10:15:01.742Z,10.23
2019-03-05T10:17:38.148Z,11.35
2019-03-05T10:20:16.678Z,10.68
2019-03-05T10:22:51.721Z,10.31
2019-03-05T10:25:25.360Z,10.03
2019-03-05T10:27:59.894Z,9.74
2019-03-05T10:30:33.090Z,9.28
2019-03-05T10:33:10.078Z,9.02
2019-03-05T10:35:44.776Z,8.96
2019-03-05T10:38:17.707Z,8.96
2019-03-05T10:40:53.222Z,8.94
2019-03-05T10:43:27.667Z,9.02
2019-03-05T10:46:02.277Z,9.18
2019-03-05T10:48:36.762Z,9.15
2019-03-05T10:51:11.286Z,9.08
2019-03-05T10:53:45.709Z,9.14
2019-03-05T10:56:18.853Z,8.98
2019-03-05T10:58:53.123Z,8.90
2019-03-05T11:01:27.688Z,8.82
2019-03-05T11:04:02.318Z,8.74
2019-03-05T11:06:36.950Z,8.80
2019-03-05T11:09:12.285Z,8.83
2019-03-05T11:11:46.947Z,8.83
2019-03-05T11:14:21.643Z,8.39
2019-03-05T11:16:56.246Z,8.39
2019-03-05T11:19:30.699Z,8.37
2019-03-05T11:22:07.280Z,8.56
2019-03-05T11:24:41.947Z,8.31
2019-03-05T11:27:16.709Z,8.29
2019-03-05T11:29:51.294Z,8.16
2019-03-05T11:32:25.925Z,8.03
2019-03-05T11:35:00.402Z,7.75
2019-03-05T11:37:34.950Z,7.87
2019-03-05T11:40:20.666Z,7.87
2019-03-05T11:42:48.323Z,7.96
2019-03-05T11:45:25.741Z,7.95
2019-03-05T11:47:59.577Z,7.96
2019-03-05T11:50:33.943Z,8.10
2019-03-05T11:53:08.635Z,8.11
2019-03-05T11:55:43.129Z,8.13
2019-03-05T11:58:17.675Z,8.17
2019-03-05T12:01:07.870Z,8.27
2019-03-05T12:03:42.323Z,8.05
2019-03-05T12:06:16.927Z,8.12
2019-03-05T12:08:51.284Z,7.81
2019-03-05T12:11:27.101Z,7.35
2019-03-05T12:14:01.797Z,6.95
2019-03-05T12:16:36.281Z,6.02
2019-03-05T12:19:11.269Z,6.02
2019-03-05T12:21:46.789Z,5.81
2019-03-05T12:24:23.907Z,5.84
2019-03-05T12:26:56.106Z,5.86
2019-03-05T12:29:30.702Z,6.05
2019-03-05T12:32:03.865Z,6.03
2019-03-05T12:34:37.280Z,6.14
2019-03-05T12:37:11.662Z,6.45
2019-03-05T12:39:46.940Z,6.45
2019-03-05T12:42:19.800Z,6.60
2019-03-05T12:44:54.122Z,6.53
2019-03-05T12:47:28.663Z,6.62
2019-03-05T12:50:02.952Z,6.62
2019-03-05T12:52:37.350Z,6.75
2019-03-05T12:55:12.111Z,6.69
2019-03-05T12:57:47.686Z,6.68
2019-03-05T13:00:44.936Z,6.65
2019-03-05T13:03:17.864Z,6.65
2019-03-05T13:05:52.164Z,6.56
2019-03-05T13:08:28.607Z,6.62
2019-03-05T13:11:02.923Z,6.62
2019-03-05T13:13:37.477Z,6.65
2019-03-05T13:16:13.910Z,6.61
2019-03-05T13:18:48.327Z,6.75
2019-03-05T13:21:22.909Z,6.75
2019-03-05T13:23:57.326Z,6.90
2019-03-05T13:26:31.879Z,6.96
2019-03-05T13:29:06.282Z,7.12
2019-03-05T13:31:42.099Z,7.36
2019-03-05T13:34:17.795Z,7.76
2019-03-05T13:36:51.816Z,7.88
2019-03-05T13:39:26.134Z,8.06
2019-03-05T13:42:00.688Z,8.32
2019-03-05T13:44:38.665Z,8.36
2019-03-05T13:47:13.597Z,8.54
2019-03-05T13:50:31.789Z,8.92
2019-03-05T13:54:14.637Z,8.92
2019-03-05T13:57:54.683Z,8.84
2019-03-05T14:00:27.273Z,8.58
2019-03-05T14:03:14.753Z,8.18
2019-03-05T14:06:54.289Z,8.18
2019-03-05T14:09:25.758Z,7.87
2019-03-05T14:11:58.705Z,7.76
2019-03-05T14:14:33.622Z,7.98
2019-03-05T14:17:33.285Z,8.11
2019-03-05T14:20:12.286Z,8.33
2019-03-05T14:22:46.706Z,8.60
2019-03-05T14:25:21.284Z,8.30
2019-03-05T14:27:55.794Z,8.32
2019-03-05T14:30:28.799Z,8.19
2019-03-05T14:33:02.976Z,8.43
2019-03-05T14:35:37.970Z,8.29
2019-03-05T14:38:12.369Z,8.29
2019-03-05T14:40:46.911Z,8.60
2019-03-05T14:43:21.208Z,8.47
2019-03-05T14:45:56.282Z,8.25
2019-03-05T14:48:31.901Z,7.90
2019-03-05T14:51:05.948Z,7.90
2019-03-05T14:53:40.736Z,7.76
2019-03-05T14:56:14.113Z,7.76
2019-03-05T14:58:48.735Z,7.66
2019-03-05T15:01:23.295Z,7.61
2019-03-05T15:03:58.230Z,7.89
2019-03-05T15:06:32.724Z,8.38
2019-03-05T15:09:06.792Z,9.00
2019-03-05T15:11:39.895Z,9.71
2019-03-05T15:14:14.290Z,9.58
2019-03-05T15:16:48.929Z,9.35
2019-03-05T15:19:23.281Z,9.07
2019-03-05T15:21:58.123Z,9.25
2019-03-05T15:24:32.890Z,9.12
2019-03-05T15:27:05.884Z,10.27
2019-03-05T15:29:40.291Z,10.27
2019-03-05T15:32:14.959Z,10.79
2019-03-05T15:34:49.722Z,12.59
2019-03-05T15:37:24.161Z,13.11
2019-03-05T15:39:58.801Z,11.32
2019-03-05T15:42:31.838Z,11.32
2019-03-05T15:45:06.685Z,10.87
2019-03-05T15:47:42.701Z,11.45
2019-03-05T15:50:19.351Z,11.41
2019-03-05T15:52:53.896Z,10.76
2019-03-05T15:55:28.405Z,9.83
2019-03-05T15:58:03.279Z,9.46
2019-03-05T16:00:37.764Z,9.13
2019-03-05T16:03:10.793Z,8.83
2019-03-05T16:05:45.277Z,8.85
2019-03-05T16:08:21.005Z,8.86
2019-03-05T16:10:58.629Z,8.78
2019-03-05T16:13:32.757Z,8.50
2019-03-05T16:16:06.908Z,8.36
2019-03-05T16:18:41.401Z,8.15
2019-03-05T16:21:16.108Z,8.15
2019-03-05T16:23:50.757Z,7.58
2019-03-05T16:26:25.281Z,7.58
2019-03-05T16:28:59.873Z,7.40
2019-03-05T16:31:59.351Z,7.23
2019-03-05T16:34:51.410Z,6.98
2019-03-05T16:37:50.632Z,6.81
2019-03-05T16:40:58.864Z,6.47
2019-03-05T16:43:43.708Z,6.13
2019-03-05T16:46:54.958Z,6.11
2019-03-05T16:49:47.626Z,6.16
2019-03-05T16:52:43.516Z,6.26
2019-03-05T16:55:26.291Z,6.26
2019-03-05T16:58:22.357Z,6.18
2019-03-05T17:01:34.284Z,6.12
2019-03-05T17:04:36.718Z,6.22
2019-03-05T17:07:27.334Z,6.36
2019-03-05T17:10:21.294Z,6.39
2019-03-05T17:12:56.115Z,6.30
2019-03-05T17:15:30.670Z,6.28
2019-03-05T17:18:05.266Z,6.28
2019-03-05T17:20:39.751Z,6.27
2019-03-05T17:23:14.687Z,6.18
2019-03-05T17:25:49.279Z,6.14
2019-03-05T17:28:23.946Z,6.20
2019-03-05T17:30:58.267Z,6.27
2019-03-05T17:33:33.918Z,6.27
2019-03-05T17:36:08.315Z,6.24
2019-03-05T17:38:42.944Z,6.18
2019-03-05T17:41:17.735Z,6.06
2019-03-05T17:43:51.855Z,6.03
2019-03-05T17:46:26.277Z,6.00
2019-03-05T17:49:00.986Z,5.94
2019-03-05T17:51:36.273Z,5.96
2019-03-05T17:54:10.941Z,5.96
2019-03-05T17:56:45.672Z,5.89
2019-03-05T17:59:20.326Z,5.83
2019-03-05T18:01:55.274Z,5.81
2019-03-05T18:04:29.798Z,5.86
2019-03-05T18:07:04.717Z,5.84
2019-03-05T18:09:37.691Z,5.83
2019-03-05T18:12:12.127Z,5.82
2019-03-05T18:14:46.728Z,5.76
2019-03-05T18:17:20.061Z,5.77
2019-03-05T18:19:55.281Z,5.72
2019-03-05T18:22:29.861Z,5.74
2019-03-05T18:25:02.859Z,5.74
2019-03-05T18:28:09.684Z,5.72
2019-03-05T18:30:42.848Z,5.70
2019-03-05T18:33:17.273Z,5.71
2019-03-05T18:35:51.930Z,5.70
2019-03-05T18:38:26.635Z,5.81
2019-03-05T18:41:01.289Z,5.81
2019-03-05T18:43:36.260Z,5.77
2019-03-05T18:46:10.943Z,5.74
2019-03-05T18:48:45.924Z,5.71
2019-03-05T18:51:18.872Z,5.75
2019-03-05T18:53:53.274Z,5.83
2019-03-05T18:56:27.894Z,5.86
2019-03-05T18:59:01.109Z,5.76
2019-03-05T19:01:36.444Z,5.76
2019-03-05T19:04:11.242Z,5.70
2019-03-05T19:08:31.321Z,5.76
2019-03-05T19:11:06.114Z,5.65
2019-03-05T19:13:40.978Z,5.68
2019-03-05T19:16:15.525Z,5.69
2019-03-05T19:18:49.935Z,5.66
2019-03-05T19:21:24.316Z,5.67
2019-03-05T19:23:58.943Z,5.65
2019-03-05T19:26:33.638Z,5.66
2019-03-05T19:29:08.283Z,5.67
2019-03-05T19:31:43.275Z,5.69
2019-03-05T19:34:18.108Z,5.61
2019-03-05T19:36:52.716Z,5.67
2019-03-05T19:39:27.278Z,5.60
2019-03-05T19:42:02.293Z,5.48
2019-03-05T19:44:37.272Z,5.48
2019-03-05T19:47:11.899Z,5.51
2019-03-05T19:49:46.687Z,5.54
2019-03-05T19:52:21.288Z,5.51
2019-03-05T19:54:58.298Z,5.58
2019-03-05T19:57:33.290Z,5.63
2019-03-05T20:00:32.968Z,5.66
2019-03-05T20:03:08.176Z,5.73
2019-03-05T20:05:43.256Z,5.75
2019-03-05T20:08:18.305Z,5.78
2019-03-05T20:10:53.281Z,5.85
2019-03-05T20:13:28.558Z,5.83
2019-03-05T20:16:03.284Z,5.80
2019-03-05T20:18:37.944Z,5.75
2019-03-05T20:21:12.946Z,5.71
2019-03-05T20:23:46.264Z,5.60
2019-03-05T20:26:20.721Z,5.52
2019-03-05T20:28:53.905Z,5.52
2019-03-05T20:31:27.134Z,5.46
2019-03-05T20:34:02.284Z,5.37
2019-03-05T20:36:37.286Z,5.37
2019-03-05T20:39:13.948Z,5.34
2019-03-05T20:41:50.270Z,5.36
2019-03-05T20:44:25.003Z,5.38
2019-03-05T20:46:59.762Z,5.43
2019-03-05T20:49:33.110Z,5.40
2019-03-05T20:53:40.708Z,5.50
2019-03-05T20:56:15.665Z,5.50
2019-03-05T20:58:48.786Z,5.47
2019-03-05T21:01:23.431Z,5.49
2019-03-05T21:03:58.134Z,5.45
2019-03-05T21:06:33.285Z,5.41
2019-03-05T21:09:20.807Z,5.41
2019-03-05T21:11:55.748Z,5.40
2019-03-05T21:14:30.285Z,5.29
2019-03-05T21:17:04.749Z,5.33
2019-03-05T21:19:37.870Z,5.28
2019-03-05T21:22:46.870Z,5.39
2019-03-05T21:25:21.782Z,5.35
2019-03-05T21:27:55.037Z,5.35
2019-03-05T21:30:28.045Z,5.38
2019-03-05T21:33:02.307Z,5.38
2019-03-05T21:35:36.936Z,5.32
2019-03-05T21:38:11.329Z,5.32
2019-03-05T21:40:45.946Z,5.36
2019-03-05T21:43:19.593Z,5.36
2019-03-05T21:45:55.320Z,5.33
2019-03-05T21:48:29.955Z,5.39
2019-03-05T21:51:04.832Z,5.40
2019-03-05T21:53:39.337Z,5.40
2019-03-05T21:56:13.901Z,5.34
2019-03-05T21:58:47.061Z,5.32
2019-03-05T22:01:21.311Z,5.31
2019-03-05T22:03:56.111Z,5.30
2019-03-05T22:06:30.776Z,5.33
2019-03-05T22:09:05.006Z,5.33
2019-03-05T22:11:40.898Z,5.23
2019-03-05T22:14:14.619Z,5.27
2019-03-05T22:16:48.889Z,5.24
2019-03-05T22:19:23.281Z,5.28
2019-03-05T22:21:58.093Z,5.22
2019-03-05T22:24:32.663Z,5.21
2019-03-05T22:27:07.111Z,5.21
2019-03-05T22:29:41.886Z,5.30
2019-03-05T22:32:16.301Z,5.30
2019-03-05T22:34:52.588Z,5.29
2019-03-05T22:37:27.282Z,5.33
2019-03-05T22:40:03.291Z,5.26
2019-03-05T22:42:37.746Z,5.25
2019-03-05T22:45:16.358Z,5.25
2019-03-05T22:47:51.284Z,5.28
2019-03-05T22:50:26.972Z,5.29
2019-03-05T22:53:01.768Z,5.36
2019-03-05T22:55:36.291Z,5.43
2019-03-05T22:58:11.215Z,5.38
2019-03-05T23:01:12.443Z,5.43
2019-03-05T23:03:58.286Z,5.42
2019-03-05T23:06:33.069Z,5.40
2019-03-05T23:09:14.915Z,5.40
2019-03-05T23:11:49.796Z,5.41
2019-03-05T23:14:23.574Z,5.37
2019-03-05T23:16:57.953Z,5.43
2019-03-05T23:19:32.289Z,5.39
2019-03-05T23:22:06.975Z,5.30
2019-03-05T23:24:41.602Z,5.39
2019-03-05T23:27:16.255Z,5.35
2019-03-05T23:29:51.740Z,5.43
2019-03-05T23:32:24.794Z,5.51
2019-03-05T23:34:58.667Z,5.51
2019-03-05T23:37:33.119Z,5.38
2019-03-05T23:40:07.959Z,5.40
2019-03-05T23:42:42.951Z,5.35
2019-03-05T23:45:16.288Z,5.35
2019-03-05T23:47:50.705Z,5.24
2019-03-05T23:50:25.269Z,5.24
2019-03-05T23:52:59.720Z,5.30
2019-03-05T23:55:34.376Z,5.27
2019-03-05T23:58:08.797Z,5.23
